sensor_id;sensor_type;location;lat;lon;timestamp;pressure;altitude;pressure_sealevel;temperature;humidity
79465;BME280;68932;47.410;8.232;2024-02-23T00:02:24;95183.34;;;6.90;74.14
79465;BME280;68932;47.410;8.232;2024-02-23T00:04:53;95183.49;;;6.90;74.20
79465;BME280;68932;47.410;8.232;2024-02-23T00:07:21;95191.61;;;6.91;73.86
79465;BME280;68932;47.410;8.232;2024-02-23T00:09:49;95192.95;;;6.92;73.89
79465;BME280;68932;47.410;8.232;2024-02-23T00:12:18;95197.00;;;6.93;74.18
79465;BME280;68932;47.410;8.232;2024-02-23T00:14:46;95194.44;;;6.93;73.95
79465;BME280;68932;47.410;8.232;2024-02-23T00:17:14;95192.85;;;6.93;74.17
79465;BME280;68932;47.410;8.232;2024-02-23T00:19:44;95189.91;;;6.93;74.43
79465;BME280;68932;47.410;8.232;2024-02-23T00:22:13;95198.42;;;6.93;74.88
79465;BME280;68932;47.410;8.232;2024-02-23T00:24:41;95203.33;;;6.93;75.00
79465;BME280;68932;47.410;8.232;2024-02-23T00:27:09;95204.23;;;6.92;75.31
79465;BME280;68932;47.410;8.232;2024-02-23T00:29:38;95200.45;;;6.91;75.67
79465;BME280;68932;47.410;8.232;2024-02-23T00:32:07;95198.18;;;6.90;75.86
79465;BME280;68932;47.410;8.232;2024-02-23T00:34:35;95197.21;;;6.87;76.44
79465;BME280;68932;47.410;8.232;2024-02-23T00:37:03;95202.01;;;6.83;77.07
79465;BME280;68932;47.410;8.232;2024-02-23T00:39:31;95202.66;;;6.79;77.49
79465;BME280;68932;47.410;8.232;2024-02-23T00:42:00;95202.59;;;6.75;77.71
79465;BME280;68932;47.410;8.232;2024-02-23T00:44:28;95196.07;;;6.72;77.93
79465;BME280;68932;47.410;8.232;2024-02-23T00:46:56;95197.52;;;6.69;78.23
79465;BME280;68932;47.410;8.232;2024-02-23T00:49:24;95203.55;;;6.66;78.45
79465;BME280;68932;47.410;8.232;2024-02-23T00:51:52;95219.52;;;6.64;78.62
79465;BME280;68932;47.410;8.232;2024-02-23T00:54:20;95230.82;;;6.62;78.73
79465;BME280;68932;47.410;8.232;2024-02-23T00:56:49;95239.54;;;6.59;78.98
79465;BME280;68932;47.410;8.232;2024-02-23T00:59:17;95251.91;;;6.57;79.32
79465;BME280;68932;47.410;8.232;2024-02-23T01:01:46;95268.54;;;6.56;79.61
79465;BME280;68932;47.410;8.232;2024-02-23T01:04:14;95271.02;;;6.53;79.75
79465;BME280;68932;47.410;8.232;2024-02-23T01:06:42;95265.33;;;6.50;79.95
79465;BME280;68932;47.410;8.232;2024-02-23T01:09:11;95270.08;;;6.47;80.17
79465;BME280;68932;47.410;8.232;2024-02-23T01:11:39;95278.64;;;6.42;80.28
79465;BME280;68932;47.410;8.232;2024-02-23T01:14:07;95280.24;;;6.35;79.93
79465;BME280;68932;47.410;8.232;2024-02-23T01:16:35;95288.08;;;6.26;79.15
79465;BME280;68932;47.410;8.232;2024-02-23T01:19:04;95288.96;;;6.11;78.18
79465;BME280;68932;47.410;8.232;2024-02-23T01:21:32;95291.27;;;5.97;77.06
79465;BME280;68932;47.410;8.232;2024-02-23T01:24:00;95287.48;;;5.84;76.78
79465;BME280;68932;47.410;8.232;2024-02-23T01:26:29;95281.98;;;5.72;76.58
79465;BME280;68932;47.410;8.232;2024-02-23T01:28:57;95288.74;;;5.60;76.51
79465;BME280;68932;47.410;8.232;2024-02-23T01:31:25;95290.12;;;5.48;76.52
79465;BME280;68932;47.410;8.232;2024-02-23T01:33:53;95297.52;;;5.39;77.27
79465;BME280;68932;47.410;8.232;2024-02-23T01:36:21;95281.59;;;5.34;77.59
79465;BME280;68932;47.410;8.232;2024-02-23T01:38:50;95280.41;;;5.29;77.47
79465;BME280;68932;47.410;8.232;2024-02-23T01:41:18;95274.32;;;5.24;77.81
79465;BME280;68932;47.410;8.232;2024-02-23T01:43:46;95277.73;;;5.23;78.29
79465;BME280;68932;47.410;8.232;2024-02-23T01:46:14;95276.18;;;5.19;78.44
79465;BME280;68932;47.410;8.232;2024-02-23T01:48:43;95260.15;;;5.15;78.31
79465;BME280;68932;47.410;8.232;2024-02-23T01:51:12;95249.11;;;5.14;78.35
79465;BME280;68932;47.410;8.232;2024-02-23T01:53:40;95255.30;;;5.15;78.42
79465;BME280;68932;47.410;8.232;2024-02-23T01:56:09;95264.19;;;5.15;78.47
79465;BME280;68932;47.410;8.232;2024-02-23T01:58:39;95260.02;;;5.15;78.67
79465;BME280;68932;47.410;8.232;2024-02-23T02:01:08;95256.40;;;5.14;78.75
79465;BME280;68932;47.410;8.232;2024-02-23T02:03:38;95254.78;;;5.15;79.06
79465;BME280;68932;47.410;8.232;2024-02-23T02:06:06;95250.88;;;5.16;79.32
79465;BME280;68932;47.410;8.232;2024-02-23T02:08:36;95245.82;;;5.19;79.43
79465;BME280;68932;47.410;8.232;2024-02-23T02:11:05;95248.99;;;5.24;79.54
79465;BME280;68932;47.410;8.232;2024-02-23T02:13:33;95238.02;;;5.27;79.64
79465;BME280;68932;47.410;8.232;2024-02-23T02:16:02;95227.44;;;5.28;79.66
79465;BME280;68932;47.410;8.232;2024-02-23T02:18:30;95225.05;;;5.30;79.77
79465;BME280;68932;47.410;8.232;2024-02-23T02:20:59;95221.43;;;5.32;79.77
79465;BME280;68932;47.410;8.232;2024-02-23T02:23:27;95219.29;;;5.33;79.78
79465;BME280;68932;47.410;8.232;2024-02-23T02:25:56;95215.94;;;5.34;79.82
79465;BME280;68932;47.410;8.232;2024-02-23T02:28:25;95220.28;;;5.36;79.88
79465;BME280;68932;47.410;8.232;2024-02-23T02:30:53;95213.27;;;5.39;80.01
79465;BME280;68932;47.410;8.232;2024-02-23T02:33:22;95199.45;;;5.43;80.07
79465;BME280;68932;47.410;8.232;2024-02-23T02:35:50;95188.70;;;5.45;80.01
79465;BME280;68932;47.410;8.232;2024-02-23T02:38:19;95187.98;;;5.45;79.92
79465;BME280;68932;47.410;8.232;2024-02-23T02:40:47;95193.46;;;5.46;80.00
79465;BME280;68932;47.410;8.232;2024-02-23T02:43:15;95195.32;;;5.47;79.91
79465;BME280;68932;47.410;8.232;2024-02-23T02:45:43;95184.13;;;5.48;80.06
79465;BME280;68932;47.410;8.232;2024-02-23T02:48:11;95182.05;;;5.50;80.08
79465;BME280;68932;47.410;8.232;2024-02-23T02:50:40;95180.63;;;5.53;80.21
79465;BME280;68932;47.410;8.232;2024-02-23T02:53:08;95176.48;;;5.57;80.10
79465;BME280;68932;47.410;8.232;2024-02-23T02:55:36;95166.36;;;5.60;80.14
79465;BME280;68932;47.410;8.232;2024-02-23T02:58:04;95154.64;;;5.64;80.00
79465;BME280;68932;47.410;8.232;2024-02-23T03:00:33;95154.19;;;5.67;80.02
79465;BME280;68932;47.410;8.232;2024-02-23T03:03:01;95156.91;;;5.70;79.87
79465;BME280;68932;47.410;8.232;2024-02-23T03:05:29;95153.23;;;5.71;79.80
79465;BME280;68932;47.410;8.232;2024-02-23T03:07:57;95155.84;;;5.69;79.72
79465;BME280;68932;47.410;8.232;2024-02-23T03:10:25;95160.17;;;5.67;79.77
79465;BME280;68932;47.410;8.232;2024-02-23T03:12:54;95156.83;;;5.65;79.76
79465;BME280;68932;47.410;8.232;2024-02-23T03:15:22;95157.77;;;5.63;79.83
79465;BME280;68932;47.410;8.232;2024-02-23T03:17:50;95164.88;;;5.64;79.91
79465;BME280;68932;47.410;8.232;2024-02-23T03:20:18;95156.73;;;5.66;80.02
79465;BME280;68932;47.410;8.232;2024-02-23T03:22:46;95158.19;;;5.67;80.04
79465;BME280;68932;47.410;8.232;2024-02-23T03:25:15;95158.53;;;5.68;79.99
79465;BME280;68932;47.410;8.232;2024-02-23T03:27:43;95155.27;;;5.69;80.06
79465;BME280;68932;47.410;8.232;2024-02-23T03:30:12;95159.98;;;5.71;80.09
79465;BME280;68932;47.410;8.232;2024-02-23T03:32:41;95163.45;;;5.74;80.14
79465;BME280;68932;47.410;8.232;2024-02-23T03:35:09;95165.44;;;5.75;80.11
79465;BME280;68932;47.410;8.232;2024-02-23T03:37:38;95161.29;;;5.77;80.20
79465;BME280;68932;47.410;8.232;2024-02-23T03:40:08;95155.66;;;5.78;80.19
79465;BME280;68932;47.410;8.232;2024-02-23T03:42:36;95153.30;;;5.79;80.08
79465;BME280;68932;47.410;8.232;2024-02-23T03:45:06;95154.61;;;5.80;80.07
79465;BME280;68932;47.410;8.232;2024-02-23T03:47:34;95153.58;;;5.83;80.06
79465;BME280;68932;47.410;8.232;2024-02-23T03:50:02;95143.05;;;5.84;79.87
79465;BME280;68932;47.410;8.232;2024-02-23T03:52:31;95139.64;;;5.85;79.64
79465;BME280;68932;47.410;8.232;2024-02-23T03:54:59;95132.59;;;5.84;79.74
79465;BME280;68932;47.410;8.232;2024-02-23T03:57:27;95136.27;;;5.84;79.53
79465;BME280;68932;47.410;8.232;2024-02-23T03:59:56;95142.86;;;5.82;79.37
79465;BME280;68932;47.410;8.232;2024-02-23T04:02:25;95131.13;;;5.80;79.28
79465;BME280;68932;47.410;8.232;2024-02-23T04:04:53;95124.29;;;5.79;79.19
79465;BME280;68932;47.410;8.232;2024-02-23T04:07:21;95122.05;;;5.76;79.10
79465;BME280;68932;47.410;8.232;2024-02-23T04:09:49;95126.85;;;5.75;79.28
79465;BME280;68932;47.410;8.232;2024-02-23T04:12:18;95124.24;;;5.73;79.36
79465;BME280;68932;47.410;8.232;2024-02-23T04:14:46;95126.43;;;5.71;79.49
79465;BME280;68932;47.410;8.232;2024-02-23T04:17:14;95129.66;;;5.68;79.75
79465;BME280;68932;47.410;8.232;2024-02-23T04:19:43;95126.05;;;5.65;79.85
79465;BME280;68932;47.410;8.232;2024-02-23T04:22:11;95131.48;;;5.62;79.99
79465;BME280;68932;47.410;8.232;2024-02-23T04:24:41;95134.23;;;5.63;80.13
79465;BME280;68932;47.410;8.232;2024-02-23T04:27:09;95141.89;;;5.65;80.30
79465;BME280;68932;47.410;8.232;2024-02-23T04:29:37;95143.02;;;5.68;80.33
79465;BME280;68932;47.410;8.232;2024-02-23T04:32:06;95145.39;;;5.71;80.17
79465;BME280;68932;47.410;8.232;2024-02-23T04:34:35;95143.60;;;5.74;80.16
79465;BME280;68932;47.410;8.232;2024-02-23T04:37:04;95144.27;;;5.77;79.97
79465;BME280;68932;47.410;8.232;2024-02-23T04:39:32;95142.95;;;5.78;79.79
79465;BME280;68932;47.410;8.232;2024-02-23T04:42:00;95136.92;;;5.77;79.72
79465;BME280;68932;47.410;8.232;2024-02-23T04:44:28;95132.70;;;5.78;79.74
79465;BME280;68932;47.410;8.232;2024-02-23T04:46:56;95136.12;;;5.79;79.59
79465;BME280;68932;47.410;8.232;2024-02-23T04:49:25;95140.93;;;5.77;79.49
79465;BME280;68932;47.410;8.232;2024-02-23T04:51:53;95139.44;;;5.74;79.32
79465;BME280;68932;47.410;8.232;2024-02-23T04:54:21;95143.54;;;5.73;79.37
79465;BME280;68932;47.410;8.232;2024-02-23T04:56:49;95141.55;;;5.71;79.37
79465;BME280;68932;47.410;8.232;2024-02-23T04:59:18;95144.56;;;5.66;79.33
79465;BME280;68932;47.410;8.232;2024-02-23T05:01:46;95146.43;;;5.62;79.66
79465;BME280;68932;47.410;8.232;2024-02-23T05:04:14;95150.61;;;5.62;79.75
79465;BME280;68932;47.410;8.232;2024-02-23T05:06:42;95142.98;;;5.62;79.73
79465;BME280;68932;47.410;8.232;2024-02-23T05:09:10;95144.83;;;5.63;79.79
79465;BME280;68932;47.410;8.232;2024-02-23T05:11:39;95146.19;;;5.63;79.68
79465;BME280;68932;47.410;8.232;2024-02-23T05:14:07;95148.07;;;5.63;79.67
79465;BME280;68932;47.410;8.232;2024-02-23T05:16:35;95157.70;;;5.63;79.58
79465;BME280;68932;47.410;8.232;2024-02-23T05:19:04;95158.21;;;5.63;79.59
79465;BME280;68932;47.410;8.232;2024-02-23T05:21:32;95165.68;;;5.63;79.58
79465;BME280;68932;47.410;8.232;2024-02-23T05:24:00;95166.60;;;5.62;79.56
79465;BME280;68932;47.410;8.232;2024-02-23T05:26:28;95171.73;;;5.60;79.47
79465;BME280;68932;47.410;8.232;2024-02-23T05:28:56;95184.47;;;5.59;79.48
79465;BME280;68932;47.410;8.232;2024-02-23T05:31:45;95184.60;;;5.58;79.33
79465;BME280;68932;47.410;8.232;2024-02-23T05:34:14;95189.77;;;5.56;79.38
79465;BME280;68932;47.410;8.232;2024-02-23T05:36:42;95189.36;;;5.55;79.57
79465;BME280;68932;47.410;8.232;2024-02-23T05:39:11;95186.33;;;5.56;79.48
79465;BME280;68932;47.410;8.232;2024-02-23T05:41:39;95182.42;;;5.54;79.30
79465;BME280;68932;47.410;8.232;2024-02-23T05:44:07;95182.18;;;5.55;79.43
79465;BME280;68932;47.410;8.232;2024-02-23T05:46:36;95182.28;;;5.56;79.37
79465;BME280;68932;47.410;8.232;2024-02-23T05:49:05;95173.56;;;5.54;79.24
79465;BME280;68932;47.410;8.232;2024-02-23T05:51:33;95171.37;;;5.53;79.13
79465;BME280;68932;47.410;8.232;2024-02-23T05:54:01;95163.01;;;5.49;79.07
79465;BME280;68932;47.410;8.232;2024-02-23T05:56:29;95154.19;;;5.44;79.09
79465;BME280;68932;47.410;8.232;2024-02-23T05:58:58;95150.67;;;5.42;79.16
79465;BME280;68932;47.410;8.232;2024-02-23T06:01:26;95146.17;;;5.42;79.27
79465;BME280;68932;47.410;8.232;2024-02-23T06:03:54;95145.55;;;5.41;79.23
79465;BME280;68932;47.410;8.232;2024-02-23T06:06:22;95141.31;;;5.40;79.17
79465;BME280;68932;47.410;8.232;2024-02-23T06:08:50;95133.38;;;5.39;79.16
79465;BME280;68932;47.410;8.232;2024-02-23T06:11:19;95135.45;;;5.37;79.07
79465;BME280;68932;47.410;8.232;2024-02-23T06:13:48;95135.52;;;5.36;79.04
79465;BME280;68932;47.410;8.232;2024-02-23T06:16:16;95144.16;;;5.32;78.85
79465;BME280;68932;47.410;8.232;2024-02-23T06:18:44;95152.33;;;5.30;78.77
79465;BME280;68932;47.410;8.232;2024-02-23T06:21:16;95158.34;;;5.28;78.77
79465;BME280;68932;47.410;8.232;2024-02-23T06:23:43;95164.17;;;5.27;78.67
79465;BME280;68932;47.410;8.232;2024-02-23T06:26:12;95168.90;;;5.24;78.55
79465;BME280;68932;47.410;8.232;2024-02-23T06:28:41;95169.25;;;5.21;78.65
79465;BME280;68932;47.410;8.232;2024-02-23T06:31:10;95176.95;;;5.18;78.32
79465;BME280;68932;47.410;8.232;2024-02-23T06:33:38;95177.58;;;5.16;78.37
79465;BME280;68932;47.410;8.232;2024-02-23T06:36:07;95174.06;;;5.15;78.29
79465;BME280;68932;47.410;8.232;2024-02-23T06:38:35;95169.60;;;5.12;78.18
79465;BME280;68932;47.410;8.232;2024-02-23T06:41:04;95177.06;;;5.09;78.14
79465;BME280;68932;47.410;8.232;2024-02-23T06:43:32;95181.46;;;5.06;77.94
79465;BME280;68932;47.410;8.232;2024-02-23T06:46:05;95178.44;;;5.03;77.87
79465;BME280;68932;47.410;8.232;2024-02-23T06:48:34;95182.21;;;4.98;77.72
79465;BME280;68932;47.410;8.232;2024-02-23T06:51:02;95179.59;;;4.96;77.97
79465;BME280;68932;47.410;8.232;2024-02-23T06:53:31;95185.77;;;4.92;77.83
79465;BME280;68932;47.410;8.232;2024-02-23T06:55:59;95194.11;;;4.90;77.84
79465;BME280;68932;47.410;8.232;2024-02-23T06:58:27;95191.50;;;4.88;77.91
79465;BME280;68932;47.410;8.232;2024-02-23T07:00:55;95182.07;;;4.86;77.86
79465;BME280;68932;47.410;8.232;2024-02-23T07:03:24;95179.30;;;4.84;77.94
79465;BME280;68932;47.410;8.232;2024-02-23T07:05:52;95176.80;;;4.82;78.08
79465;BME280;68932;47.410;8.232;2024-02-23T07:08:20;95179.21;;;4.82;78.00
79465;BME280;68932;47.410;8.232;2024-02-23T07:10:48;95179.09;;;4.81;77.93
79465;BME280;68932;47.410;8.232;2024-02-23T07:13:16;95182.23;;;4.82;78.08
79465;BME280;68932;47.410;8.232;2024-02-23T07:15:45;95180.17;;;4.81;78.02
79465;BME280;68932;47.410;8.232;2024-02-23T07:18:13;95182.27;;;4.81;78.23
79465;BME280;68932;47.410;8.232;2024-02-23T07:20:41;95179.78;;;4.82;78.21
79465;BME280;68932;47.410;8.232;2024-02-23T07:23:09;95171.13;;;4.81;78.25
79465;BME280;68932;47.410;8.232;2024-02-23T07:25:38;95162.06;;;4.79;78.08
79465;BME280;68932;47.410;8.232;2024-02-23T07:28:06;95159.09;;;4.77;78.15
79465;BME280;68932;47.410;8.232;2024-02-23T07:30:34;95169.45;;;4.75;78.02
79465;BME280;68932;47.410;8.232;2024-02-23T07:33:03;95173.31;;;4.72;77.92
79465;BME280;68932;47.410;8.232;2024-02-23T07:35:31;95181.11;;;4.70;77.86
79465;BME280;68932;47.410;8.232;2024-02-23T07:37:59;95190.07;;;4.69;78.02
79465;BME280;68932;47.410;8.232;2024-02-23T07:40:28;95192.35;;;4.66;77.75
79465;BME280;68932;47.410;8.232;2024-02-23T07:42:56;95192.95;;;4.64;77.70
79465;BME280;68932;47.410;8.232;2024-02-23T07:45:24;95193.99;;;4.64;77.77
79465;BME280;68932;47.410;8.232;2024-02-23T07:47:52;95188.35;;;4.66;77.69
79465;BME280;68932;47.410;8.232;2024-02-23T07:50:21;95185.30;;;4.67;77.73
79465;BME280;68932;47.410;8.232;2024-02-23T07:52:49;95187.13;;;4.68;77.79
79465;BME280;68932;47.410;8.232;2024-02-23T07:55:17;95190.84;;;4.70;77.74
79465;BME280;68932;47.410;8.232;2024-02-23T07:57:45;95193.86;;;4.71;77.57
79465;BME280;68932;47.410;8.232;2024-02-23T08:00:14;95199.61;;;4.73;77.68
79465;BME280;68932;47.410;8.232;2024-02-23T08:02:43;95201.98;;;4.76;77.69
79465;BME280;68932;47.410;8.232;2024-02-23T08:05:11;95203.19;;;4.79;77.77
79465;BME280;68932;47.410;8.232;2024-02-23T08:07:39;95205.66;;;4.84;77.69
79465;BME280;68932;47.410;8.232;2024-02-23T08:10:09;95204.43;;;4.86;77.81
79465;BME280;68932;47.410;8.232;2024-02-23T08:12:37;95199.66;;;4.87;77.84
79465;BME280;68932;47.410;8.232;2024-02-23T08:15:08;95201.58;;;4.87;77.69
79465;BME280;68932;47.410;8.232;2024-02-23T08:17:36;95199.98;;;4.88;77.80
79465;BME280;68932;47.410;8.232;2024-02-23T08:20:06;95199.48;;;4.88;77.62
79465;BME280;68932;47.410;8.232;2024-02-23T08:22:34;95195.27;;;4.88;77.66
79465;BME280;68932;47.410;8.232;2024-02-23T08:25:03;95198.83;;;4.90;77.61
79465;BME280;68932;47.410;8.232;2024-02-23T08:27:31;95200.42;;;4.91;77.76
79465;BME280;68932;47.410;8.232;2024-02-23T08:29:59;95202.77;;;4.93;77.78
79465;BME280;68932;47.410;8.232;2024-02-23T08:32:27;95200.39;;;4.94;77.71
79465;BME280;68932;47.410;8.232;2024-02-23T08:34:56;95199.59;;;4.96;77.64
79465;BME280;68932;47.410;8.232;2024-02-23T08:37:24;95201.09;;;4.96;77.62
79465;BME280;68932;47.410;8.232;2024-02-23T08:39:53;95202.80;;;4.97;77.60
79465;BME280;68932;47.410;8.232;2024-02-23T08:42:21;95196.23;;;4.96;77.33
79465;BME280;68932;47.410;8.232;2024-02-23T08:44:49;95188.77;;;4.96;77.19
79465;BME280;68932;47.410;8.232;2024-02-23T08:47:17;95179.48;;;4.95;77.12
79465;BME280;68932;47.410;8.232;2024-02-23T08:49:45;95176.02;;;4.93;76.87
79465;BME280;68932;47.410;8.232;2024-02-23T08:52:14;95170.52;;;4.92;76.66
79465;BME280;68932;47.410;8.232;2024-02-23T08:54:42;95167.99;;;4.91;76.73
79465;BME280;68932;47.410;8.232;2024-02-23T08:57:10;95168.79;;;4.90;76.74
79465;BME280;68932;47.410;8.232;2024-02-23T08:59:38;95172.52;;;4.88;76.74
79465;BME280;68932;47.410;8.232;2024-02-23T09:02:06;95169.30;;;4.87;76.61
79465;BME280;68932;47.410;8.232;2024-02-23T09:04:35;95171.56;;;4.85;76.48
79465;BME280;68932;47.410;8.232;2024-02-23T09:07:03;95172.02;;;4.83;76.52
79465;BME280;68932;47.410;8.232;2024-02-23T09:09:32;95174.55;;;4.82;76.61
79465;BME280;68932;47.410;8.232;2024-02-23T09:12:00;95171.17;;;4.80;76.75
79465;BME280;68932;47.410;8.232;2024-02-23T09:14:28;95172.60;;;4.80;76.71
79465;BME280;68932;47.410;8.232;2024-02-23T09:16:56;95168.77;;;4.83;76.82
79465;BME280;68932;47.410;8.232;2024-02-23T09:19:25;95165.06;;;4.88;76.88
79465;BME280;68932;47.410;8.232;2024-02-23T09:21:53;95161.41;;;4.93;76.79
79465;BME280;68932;47.410;8.232;2024-02-23T09:24:21;95163.45;;;4.98;76.91
79465;BME280;68932;47.410;8.232;2024-02-23T09:26:49;95169.68;;;5.04;76.76
79465;BME280;68932;47.410;8.232;2024-02-23T09:29:18;95175.33;;;5.07;76.66
79465;BME280;68932;47.410;8.232;2024-02-23T09:31:46;95171.06;;;5.11;76.56
79465;BME280;68932;47.410;8.232;2024-02-23T09:34:14;95177.73;;;5.14;76.57
79465;BME280;68932;47.410;8.232;2024-02-23T09:36:42;95171.35;;;5.16;75.49
79465;BME280;68932;47.410;8.232;2024-02-23T09:39:11;95162.95;;;5.25;75.50
79465;BME280;68932;47.410;8.232;2024-02-23T09:41:40;95160.46;;;5.35;75.54
79465;BME280;68932;47.410;8.232;2024-02-23T09:44:09;95146.36;;;5.44;74.85
79465;BME280;68932;47.410;8.232;2024-02-23T09:46:38;95147.44;;;5.51;74.10
79465;BME280;68932;47.410;8.232;2024-02-23T09:49:08;95146.02;;;5.58;73.92
79465;BME280;68932;47.410;8.232;2024-02-23T09:51:40;95136.11;;;5.68;73.49
79465;BME280;68932;47.410;8.232;2024-02-23T09:54:08;95135.73;;;5.77;73.07
79465;BME280;68932;47.410;8.232;2024-02-23T09:56:37;95135.39;;;5.86;72.68
79465;BME280;68932;47.410;8.232;2024-02-23T09:59:06;95136.58;;;5.93;72.52
79465;BME280;68932;47.410;8.232;2024-02-23T10:01:34;95138.70;;;5.97;72.44
79465;BME280;68932;47.410;8.232;2024-02-23T10:04:03;95132.90;;;6.01;72.01
79465;BME280;68932;47.410;8.232;2024-02-23T10:06:32;95131.90;;;6.09;71.90
79465;BME280;68932;47.410;8.232;2024-02-23T10:09:01;95130.30;;;6.18;72.04
79465;BME280;68932;47.410;8.232;2024-02-23T10:11:29;95133.38;;;6.26;71.70
79465;BME280;68932;47.410;8.232;2024-02-23T10:13:57;95131.98;;;6.30;71.49
79465;BME280;68932;47.410;8.232;2024-02-23T10:16:25;95133.17;;;6.35;71.21
79465;BME280;68932;47.410;8.232;2024-02-23T10:18:53;95130.34;;;6.43;71.80
79465;BME280;68932;47.410;8.232;2024-02-23T10:21:22;95132.09;;;6.49;70.87
79465;BME280;68932;47.410;8.232;2024-02-23T10:23:50;95134.88;;;6.56;70.72
79465;BME280;68932;47.410;8.232;2024-02-23T10:26:18;95136.88;;;6.63;70.63
79465;BME280;68932;47.410;8.232;2024-02-23T10:28:47;95127.63;;;6.70;69.70
79465;BME280;68932;47.410;8.232;2024-02-23T10:31:16;95126.28;;;6.76;69.67
79465;BME280;68932;47.410;8.232;2024-02-23T10:33:45;95132.15;;;6.81;69.47
79465;BME280;68932;47.410;8.232;2024-02-23T10:36:16;95137.46;;;6.87;68.58
79465;BME280;68932;47.410;8.232;2024-02-23T10:38:47;95127.92;;;6.93;67.59
79465;BME280;68932;47.410;8.232;2024-02-23T10:41:18;95125.55;;;7.00;68.06
79465;BME280;68932;47.410;8.232;2024-02-23T10:43:48;95126.39;;;7.09;67.94
79465;BME280;68932;47.410;8.232;2024-02-23T10:46:16;95125.02;;;7.15;65.68
79465;BME280;68932;47.410;8.232;2024-02-23T10:48:46;95126.70;;;7.23;66.25
79465;BME280;68932;47.410;8.232;2024-02-23T10:51:16;95115.54;;;7.27;65.72
79465;BME280;68932;47.410;8.232;2024-02-23T10:53:45;95114.68;;;7.31;65.99
79465;BME280;68932;47.410;8.232;2024-02-23T10:56:14;95116.27;;;7.37;65.74
79465;BME280;68932;47.410;8.232;2024-02-23T10:58:43;95115.48;;;7.40;65.69
79465;BME280;68932;47.410;8.232;2024-02-23T11:01:12;95112.94;;;7.46;65.39
79465;BME280;68932;47.410;8.232;2024-02-23T11:03:43;95110.41;;;7.51;64.49
79465;BME280;68932;47.410;8.232;2024-02-23T11:06:13;95115.73;;;7.54;64.19
79465;BME280;68932;47.410;8.232;2024-02-23T11:08:41;95109.92;;;7.61;64.61
79465;BME280;68932;47.410;8.232;2024-02-23T11:11:11;95101.80;;;7.72;64.81
79465;BME280;68932;47.410;8.232;2024-02-23T11:13:40;95100.30;;;7.78;63.99
79465;BME280;68932;47.410;8.232;2024-02-23T11:16:09;95098.15;;;7.79;63.59
79465;BME280;68932;47.410;8.232;2024-02-23T11:18:39;95089.61;;;7.89;63.77
79465;BME280;68932;47.410;8.232;2024-02-23T11:21:10;95087.39;;;7.94;62.68
79465;BME280;68932;47.410;8.232;2024-02-23T11:23:43;95088.33;;;7.95;62.60
79465;BME280;68932;47.410;8.232;2024-02-23T11:26:12;95091.11;;;7.99;62.41
79465;BME280;68932;47.410;8.232;2024-02-23T11:28:50;95090.12;;;8.01;61.55
79465;BME280;68932;47.410;8.232;2024-02-23T11:31:21;95087.40;;;8.11;61.46
79465;BME280;68932;47.410;8.232;2024-02-23T11:33:54;95087.17;;;8.25;61.96
79465;BME280;68932;47.410;8.232;2024-02-23T11:36:27;95080.18;;;8.37;60.30
79465;BME280;68932;47.410;8.232;2024-02-23T11:38:58;95077.95;;;8.44;59.64
79465;BME280;68932;47.410;8.232;2024-02-23T11:41:27;95077.38;;;8.52;60.63
79465;BME280;68932;47.410;8.232;2024-02-23T11:43:56;95073.15;;;8.64;59.50
79465;BME280;68932;47.410;8.232;2024-02-23T11:46:25;95067.38;;;8.74;59.53
79465;BME280;68932;47.410;8.232;2024-02-23T11:48:53;95071.73;;;8.78;59.01
79465;BME280;68932;47.410;8.232;2024-02-23T11:51:22;95071.87;;;8.78;58.95
79465;BME280;68932;47.410;8.232;2024-02-23T11:53:50;95067.40;;;8.84;58.79
79465;BME280;68932;47.410;8.232;2024-02-23T11:56:20;95065.77;;;8.85;57.31
79465;BME280;68932;47.410;8.232;2024-02-23T11:58:48;95066.96;;;8.85;56.06
79465;BME280;68932;47.410;8.232;2024-02-23T12:01:16;95070.65;;;8.91;56.26
79465;BME280;68932;47.410;8.232;2024-02-23T12:03:44;95064.29;;;8.99;56.10
79465;BME280;68932;47.410;8.232;2024-02-23T12:06:14;95061.85;;;9.07;55.02
79465;BME280;68932;47.410;8.232;2024-02-23T12:08:43;95060.11;;;9.14;54.93
79465;BME280;68932;47.410;8.232;2024-02-23T12:11:12;95062.21;;;9.20;54.02
79465;BME280;68932;47.410;8.232;2024-02-23T12:13:41;95055.80;;;9.24;53.45
79465;BME280;68932;47.410;8.232;2024-02-23T12:16:10;95056.27;;;9.26;53.40
79465;BME280;68932;47.410;8.232;2024-02-23T12:18:38;95055.57;;;9.30;53.40
79465;BME280;68932;47.410;8.232;2024-02-23T12:21:08;95053.20;;;9.33;52.21
79465;BME280;68932;47.410;8.232;2024-02-23T12:23:44;95053.40;;;9.34;51.73
79465;BME280;68932;47.410;8.232;2024-02-23T12:26:15;95043.77;;;9.36;52.04
79465;BME280;68932;47.410;8.232;2024-02-23T12:28:44;95044.26;;;9.41;52.76
79465;BME280;68932;47.410;8.232;2024-02-23T12:31:12;95042.32;;;9.45;51.58
79465;BME280;68932;47.410;8.232;2024-02-23T12:33:41;95043.75;;;9.46;51.55
79465;BME280;68932;47.410;8.232;2024-02-23T12:36:10;95042.63;;;9.50;52.40
79465;BME280;68932;47.410;8.232;2024-02-23T12:38:38;95038.04;;;9.53;51.87
79465;BME280;68932;47.410;8.232;2024-02-23T12:41:06;95040.48;;;9.57;51.91
79465;BME280;68932;47.410;8.232;2024-02-23T12:43:35;95033.52;;;9.60;51.94
79465;BME280;68932;47.410;8.232;2024-02-23T12:46:03;95030.15;;;9.65;52.19
79465;BME280;68932;47.410;8.232;2024-02-23T12:48:31;95023.90;;;9.70;52.05
79465;BME280;68932;47.410;8.232;2024-02-23T12:50:59;95019.69;;;9.75;51.20
79465;BME280;68932;47.410;8.232;2024-02-23T12:53:35;95021.64;;;9.79;50.93
79465;BME280;68932;47.410;8.232;2024-02-23T12:56:06;95021.57;;;9.82;50.64
79465;BME280;68932;47.410;8.232;2024-02-23T12:58:35;95025.31;;;9.85;50.69
79465;BME280;68932;47.410;8.232;2024-02-23T13:01:03;95015.91;;;9.86;50.09
79465;BME280;68932;47.410;8.232;2024-02-23T13:03:33;95010.62;;;9.90;51.13
79465;BME280;68932;47.410;8.232;2024-02-23T13:06:02;95011.05;;;9.96;51.22
79465;BME280;68932;47.410;8.232;2024-02-23T13:08:30;95012.42;;;10.02;50.67
79465;BME280;68932;47.410;8.232;2024-02-23T13:10:59;95007.38;;;10.08;50.94
79465;BME280;68932;47.410;8.232;2024-02-23T13:13:27;94999.70;;;10.17;51.73
79465;BME280;68932;47.410;8.232;2024-02-23T13:15:55;95000.55;;;10.22;50.47
79465;BME280;68932;47.410;8.232;2024-02-23T13:18:24;94998.33;;;10.25;49.08